MSR741 HECA-LCLK
Flight info
| Callsign | MSR741 |
|---|---|
| Flight time | 1h 0m |
| Altitude | 24000 |
| Route | CVO A16 DEGDI/N0448F370 DCT SENTO/N0451F360 Q777 IMPIP N307 LAKTO N71 STEPA/N0445F370 DCT ODELO DCT EMEDA |
| Aircraft | A320/M-SDE3FGHIRWY/LB1 |
Departure
| Time | 2026-05-07 13:27 |
|---|---|
| Airport | Cairo International Airport (HECA) |
Arrival
| Time | 2026-05-07 14:27 |
|---|---|
| Airport | Larnaca International Airport (LCLK) |
| Time | Latitude | Longitude | Altitude | Speed | Heading |
|---|---|---|---|---|---|
| 2026-05-07 12:47 | 30.10654 | 31.38995 | 374 ft | 0 kts | 256° |
| 2026-05-07 13:14 | 30.10655 | 31.39000 | 374 ft | 3 kts | 255° |
| 2026-05-07 13:14 | 30.10660 | 31.39024 | 374 ft | 3 kts | 253° |
| 2026-05-07 13:14 | 30.10667 | 31.39047 | 374 ft | 3 kts | 249° |
| 2026-05-07 13:15 | 30.10672 | 31.39062 | 374 ft | 3 kts | 244° |
| 2026-05-07 13:15 | 30.10682 | 31.39082 | 374 ft | 3 kts | 228° |
| 2026-05-07 13:15 | 30.10696 | 31.39095 | 374 ft | 3 kts | 184° |
| 2026-05-07 13:15 | 30.10703 | 31.39096 | 374 ft | 0 kts | 165° |
| 2026-05-07 13:19 | 30.10693 | 31.39099 | 374 ft | 4 kts | 165° |
| 2026-05-07 13:19 | 30.10655 | 31.39110 | 374 ft | 8 kts | 165° |
| 2026-05-07 13:20 | 30.10588 | 31.39130 | 374 ft | 12 kts | 165° |
| 2026-05-07 13:20 | 30.10527 | 31.39178 | 374 ft | 12 kts | 109° |
| 2026-05-07 13:20 | 30.10546 | 31.39282 | 374 ft | 15 kts | 74° |
| 2026-05-07 13:20 | 30.10576 | 31.39410 | 374 ft | 18 kts | 75° |
| 2026-05-07 13:21 | 30.10611 | 31.39562 | 374 ft | 20 kts | 75° |
| 2026-05-07 13:21 | 30.10635 | 31.39683 | 374 ft | 13 kts | 93° |
| 2026-05-07 13:21 | 30.10557 | 31.39745 | 374 ft | 16 kts | 166° |
| 2026-05-07 13:21 | 30.10444 | 31.39778 | 374 ft | 17 kts | 165° |
| 2026-05-07 13:22 | 30.10345 | 31.39774 | 374 ft | 15 kts | 220° |
| 2026-05-07 13:22 | 30.10277 | 31.39685 | 374 ft | 13 kts | 229° |
| 2026-05-07 13:22 | 30.10227 | 31.39620 | 374 ft | 9 kts | 229° |
| 2026-05-07 13:22 | 30.10173 | 31.39571 | 374 ft | 11 kts | 191° |
| 2026-05-07 13:23 | 30.10099 | 31.39621 | 374 ft | 14 kts | 139° |
| 2026-05-07 13:23 | 30.10056 | 31.39663 | 374 ft | 0 kts | 139° |
| 2026-05-07 13:25 | 30.10053 | 31.39667 | 374 ft | 2 kts | 139° |
| 2026-05-07 13:25 | 30.10030 | 31.39690 | 374 ft | 7 kts | 137° |
| 2026-05-07 13:26 | 30.10003 | 31.39748 | 374 ft | 10 kts | 103° |
| 2026-05-07 13:26 | 30.10008 | 31.39838 | 373 ft | 14 kts | 77° |
| 2026-05-07 13:26 | 30.10092 | 31.39990 | 371 ft | 36 kts | 48° |
| 2026-05-07 13:26 | 30.10422 | 31.40428 | 378 ft | 105 kts | 49° |
| 2026-05-07 13:27 | 30.11036 | 31.41223 | 404 ft | 154 kts | 43° |
| 2026-05-07 13:27 | 30.11807 | 31.42025 | 1150 ft | 147 kts | 27° |
| 2026-05-07 13:27 | 30.12828 | 31.42094 | 1690 ft | 161 kts | 341° |
| 2026-05-07 13:27 | 30.13820 | 31.41239 | 1907 ft | 193 kts | 325° |
| 2026-05-07 13:28 | 30.14921 | 31.40194 | 2282 ft | 218 kts | 325° |
| 2026-05-07 13:28 | 30.16163 | 31.39020 | 2771 ft | 243 kts | 325° |
| 2026-05-07 13:28 | 30.17529 | 31.37761 | 3331 ft | 257 kts | 324° |
| 2026-05-07 13:28 | 30.18963 | 31.36519 | 3493 ft | 257 kts | 333° |
| 2026-05-07 13:29 | 30.20641 | 31.35885 | 4314 ft | 254 kts | 353° |
| 2026-05-07 13:29 | 30.22400 | 31.35562 | 5347 ft | 257 kts | 352° |
| 2026-05-07 13:29 | 30.24158 | 31.35245 | 6355 ft | 261 kts | 352° |
| 2026-05-07 13:29 | 30.25973 | 31.34920 | 7273 ft | 265 kts | 352° |
| 2026-05-07 13:30 | 30.27805 | 31.34595 | 8255 ft | 267 kts | 351° |
| 2026-05-07 13:30 | 30.29670 | 31.34266 | 9135 ft | 273 kts | 351° |
| 2026-05-07 13:30 | 30.31569 | 31.33933 | 9992 ft | 280 kts | 351° |
| 2026-05-07 13:30 | 30.33555 | 31.33585 | 10448 ft | 299 kts | 351° |
| 2026-05-07 13:31 | 30.35698 | 31.33210 | 10733 ft | 321 kts | 351° |
| 2026-05-07 13:31 | 30.37947 | 31.32820 | 11325 ft | 331 kts | 351° |
| 2026-05-07 13:31 | 30.40244 | 31.32422 | 12058 ft | 336 kts | 351° |
| 2026-05-07 13:31 | 30.42573 | 31.32017 | 12807 ft | 341 kts | 350° |
| 2026-05-07 13:32 | 30.44934 | 31.31606 | 13592 ft | 345 kts | 350° |
| 2026-05-07 13:32 | 30.47288 | 31.31195 | 14307 ft | 348 kts | 350° |
| 2026-05-07 13:32 | 30.49693 | 31.30774 | 14982 ft | 351 kts | 350° |
| 2026-05-07 13:32 | 30.52128 | 31.30346 | 15641 ft | 355 kts | 350° |
| 2026-05-07 13:33 | 30.54583 | 31.29912 | 16301 ft | 358 kts | 351° |
| 2026-05-07 13:33 | 30.57053 | 31.29476 | 16997 ft | 361 kts | 351° |
| 2026-05-07 13:33 | 30.59546 | 31.29039 | 17691 ft | 364 kts | 351° |
| 2026-05-07 13:33 | 30.62060 | 31.28596 | 18376 ft | 367 kts | 351° |
| 2026-05-07 13:34 | 30.64606 | 31.28149 | 18982 ft | 371 kts | 351° |
| 2026-05-07 13:34 | 30.69759 | 31.27248 | 20270 ft | 378 kts | 350° |
| 2026-05-07 13:34 | 30.72372 | 31.26792 | 20900 ft | 381 kts | 350° |
| 2026-05-07 13:35 | 30.75006 | 31.26331 | 21518 ft | 384 kts | 350° |
| 2026-05-07 13:35 | 30.77664 | 31.25865 | 22109 ft | 388 kts | 350° |
| 2026-05-07 13:35 | 30.80344 | 31.25392 | 22680 ft | 391 kts | 350° |
| 2026-05-07 13:35 | 30.83048 | 31.24913 | 23006 ft | 394 kts | 350° |
| 2026-05-07 13:36 | 30.85719 | 31.24440 | 23073 ft | 394 kts | 350° |
| 2026-05-07 13:36 | 30.88433 | 31.23961 | 23072 ft | 394 kts | 350° |
| 2026-05-07 13:36 | 30.91143 | 31.23483 | 23070 ft | 394 kts | 349° |
| 2026-05-07 13:36 | 30.93849 | 31.23006 | 23070 ft | 393 kts | 349° |
| 2026-05-07 13:37 | 30.96562 | 31.22525 | 23084 ft | 393 kts | 349° |
| 2026-05-07 13:37 | 30.99265 | 31.22044 | 23084 ft | 393 kts | 349° |
| 2026-05-07 13:37 | 31.01972 | 31.21565 | 23084 ft | 393 kts | 349° |
| 2026-05-07 13:37 | 31.04674 | 31.21090 | 23082 ft | 393 kts | 350° |
| 2026-05-07 13:38 | 31.07380 | 31.20613 | 23087 ft | 393 kts | 349° |
| 2026-05-07 13:38 | 31.10051 | 31.20140 | 23088 ft | 393 kts | 349° |
| 2026-05-07 13:38 | 31.12755 | 31.19660 | 23087 ft | 393 kts | 349° |
| 2026-05-07 13:38 | 31.15460 | 31.19180 | 23096 ft | 393 kts | 349° |
| 2026-05-07 13:39 | 31.18160 | 31.18700 | 23109 ft | 393 kts | 349° |
| 2026-05-07 13:39 | 31.20873 | 31.18296 | 23101 ft | 394 kts | 355° |
| 2026-05-07 13:39 | 31.23620 | 31.18415 | 23102 ft | 397 kts | 5° |
| 2026-05-07 13:39 | 31.26322 | 31.19140 | 23107 ft | 400 kts | 16° |
| 2026-05-07 13:40 | 31.28878 | 31.20455 | 23112 ft | 403 kts | 24° |
| 2026-05-07 13:40 | 31.31373 | 31.21955 | 23106 ft | 404 kts | 24° |
| 2026-05-07 13:40 | 31.33880 | 31.23461 | 23112 ft | 404 kts | 24° |
| 2026-05-07 13:40 | 31.36383 | 31.24964 | 23117 ft | 404 kts | 24° |
| 2026-05-07 13:41 | 31.38880 | 31.26462 | 23114 ft | 404 kts | 24° |
| 2026-05-07 13:41 | 31.41349 | 31.27944 | 23110 ft | 404 kts | 24° |
| 2026-05-07 13:41 | 31.43850 | 31.29445 | 23118 ft | 404 kts | 24° |
| 2026-05-07 13:41 | 31.46354 | 31.30947 | 23117 ft | 404 kts | 24° |
| 2026-05-07 13:42 | 31.48859 | 31.32451 | 23117 ft | 404 kts | 24° |
| 2026-05-07 13:42 | 31.51365 | 31.33960 | 23120 ft | 404 kts | 24° |
| 2026-05-07 13:42 | 31.53953 | 31.35215 | 23120 ft | 400 kts | 14° |
| 2026-05-07 13:42 | 31.56655 | 31.35907 | 23119 ft | 397 kts | 4° |
| 2026-05-07 13:43 | 31.59398 | 31.36026 | 23132 ft | 394 kts | 354° |
| 2026-05-07 13:43 | 31.62127 | 31.35753 | 23125 ft | 393 kts | 352° |
| 2026-05-07 13:43 | 31.64848 | 31.35469 | 23125 ft | 393 kts | 353° |
| 2026-05-07 13:43 | 31.67577 | 31.35186 | 23124 ft | 393 kts | 353° |
| 2026-05-07 13:44 | 31.70299 | 31.34904 | 23122 ft | 393 kts | 353° |
| 2026-05-07 13:44 | 31.72991 | 31.34625 | 23125 ft | 393 kts | 353° |
| 2026-05-07 13:44 | 31.75715 | 31.34342 | 23125 ft | 393 kts | 353° |
| 2026-05-07 13:44 | 31.78440 | 31.34060 | 23124 ft | 393 kts | 353° |
| 2026-05-07 13:45 | 31.81165 | 31.33777 | 23128 ft | 393 kts | 353° |
| 2026-05-07 13:45 | 31.83893 | 31.33494 | 23128 ft | 393 kts | 353° |
| 2026-05-07 13:45 | 31.86616 | 31.33211 | 23128 ft | 393 kts | 353° |
| 2026-05-07 13:45 | 31.89340 | 31.32928 | 23128 ft | 393 kts | 353° |
| 2026-05-07 13:46 | 31.92064 | 31.32645 | 23127 ft | 393 kts | 353° |
| 2026-05-07 13:46 | 31.94789 | 31.32359 | 23125 ft | 393 kts | 352° |
| 2026-05-07 13:46 | 31.97518 | 31.32069 | 23125 ft | 393 kts | 352° |
| 2026-05-07 13:46 | 32.00242 | 31.31778 | 23124 ft | 393 kts | 352° |
| 2026-05-07 13:47 | 32.02968 | 31.31485 | 23126 ft | 393 kts | 352° |
| 2026-05-07 13:47 | 32.05686 | 31.31193 | 23128 ft | 393 kts | 352° |
| 2026-05-07 13:47 | 32.08380 | 31.30905 | 23130 ft | 393 kts | 352° |
| 2026-05-07 13:47 | 32.11110 | 31.30711 | 23124 ft | 394 kts | 359° |
| 2026-05-07 13:48 | 32.13844 | 31.31122 | 23124 ft | 398 kts | 10° |
| 2026-05-07 13:48 | 32.16489 | 31.32138 | 23124 ft | 403 kts | 21° |
| 2026-05-07 13:48 | 32.18911 | 31.33841 | 23127 ft | 409 kts | 35° |
| 2026-05-07 13:48 | 32.20925 | 31.36230 | 23124 ft | 415 kts | 49° |
| 2026-05-07 13:49 | 32.22591 | 31.39026 | 23127 ft | 417 kts | 52° |
| 2026-05-07 13:49 | 32.24243 | 31.41847 | 23128 ft | 417 kts | 52° |
| 2026-05-07 13:49 | 32.25895 | 31.44659 | 23128 ft | 417 kts | 52° |
| 2026-05-07 13:49 | 32.27554 | 31.47468 | 23129 ft | 417 kts | 51° |
| 2026-05-07 13:50 | 32.29216 | 31.50271 | 23127 ft | 417 kts | 51° |
| 2026-05-07 13:50 | 32.30861 | 31.53044 | 23130 ft | 417 kts | 51° |
| 2026-05-07 13:50 | 32.32525 | 31.55849 | 23126 ft | 417 kts | 51° |
| 2026-05-07 13:50 | 32.34188 | 31.58657 | 23127 ft | 417 kts | 51° |
| 2026-05-07 13:51 | 32.35848 | 31.61468 | 23126 ft | 417 kts | 51° |
| 2026-05-07 13:51 | 32.37507 | 31.64281 | 23120 ft | 417 kts | 51° |
| 2026-05-07 13:51 | 32.39164 | 31.67092 | 23120 ft | 417 kts | 51° |
| 2026-05-07 13:51 | 32.40824 | 31.69910 | 23120 ft | 417 kts | 51° |
| 2026-05-07 13:52 | 32.42481 | 31.72722 | 23137 ft | 417 kts | 51° |
| 2026-05-07 13:52 | 32.44142 | 31.75540 | 23121 ft | 417 kts | 51° |
| 2026-05-07 13:52 | 32.45802 | 31.78361 | 23126 ft | 417 kts | 51° |
| 2026-05-07 13:52 | 32.47459 | 31.81185 | 23123 ft | 417 kts | 51° |
| 2026-05-07 13:53 | 32.49116 | 31.84013 | 23117 ft | 417 kts | 51° |
| 2026-05-07 13:53 | 32.50773 | 31.86841 | 23120 ft | 417 kts | 51° |
| 2026-05-07 13:53 | 32.52431 | 31.89669 | 23121 ft | 417 kts | 51° |
| 2026-05-07 13:53 | 32.54064 | 31.92458 | 23120 ft | 417 kts | 51° |
| 2026-05-07 13:54 | 32.55720 | 31.95285 | 23128 ft | 417 kts | 51° |
| 2026-05-07 13:54 | 32.57371 | 31.98110 | 23119 ft | 417 kts | 51° |
| 2026-05-07 13:54 | 32.59024 | 32.00942 | 23120 ft | 418 kts | 51° |
| 2026-05-07 13:54 | 32.60679 | 32.03779 | 23119 ft | 418 kts | 51° |
| 2026-05-07 13:55 | 32.62335 | 32.06617 | 23125 ft | 418 kts | 51° |
| 2026-05-07 13:55 | 32.63989 | 32.09454 | 23123 ft | 418 kts | 51° |
| 2026-05-07 13:55 | 32.65644 | 32.12290 | 23122 ft | 418 kts | 51° |
| 2026-05-07 13:55 | 32.67303 | 32.15131 | 23125 ft | 418 kts | 51° |
| 2026-05-07 13:56 | 32.68965 | 32.17971 | 23122 ft | 418 kts | 51° |
| 2026-05-07 13:56 | 32.70630 | 32.20805 | 23119 ft | 418 kts | 51° |
| 2026-05-07 13:56 | 32.72296 | 32.23644 | 23119 ft | 418 kts | 51° |
| 2026-05-07 13:56 | 32.73958 | 32.26485 | 23123 ft | 418 kts | 51° |
| 2026-05-07 13:57 | 32.75614 | 32.29324 | 23116 ft | 419 kts | 51° |
| 2026-05-07 13:57 | 32.77272 | 32.32178 | 23117 ft | 419 kts | 51° |
| 2026-05-07 13:57 | 32.78925 | 32.35029 | 23124 ft | 419 kts | 51° |
| 2026-05-07 13:57 | 32.80556 | 32.37840 | 23119 ft | 419 kts | 51° |
| 2026-05-07 13:58 | 32.82368 | 32.40530 | 23117 ft | 414 kts | 42° |
| 2026-05-07 13:58 | 32.84425 | 32.42927 | 23117 ft | 413 kts | 39° |
| 2026-05-07 13:58 | 32.86495 | 32.45297 | 23120 ft | 413 kts | 39° |
| 2026-05-07 13:58 | 32.88567 | 32.47670 | 23119 ft | 413 kts | 39° |
| 2026-05-07 13:59 | 32.90639 | 32.50044 | 23122 ft | 413 kts | 39° |
| 2026-05-07 13:59 | 32.92678 | 32.52390 | 23116 ft | 413 kts | 39° |
| 2026-05-07 13:59 | 32.94742 | 32.54773 | 23117 ft | 413 kts | 40° |
| 2026-05-07 13:59 | 32.96802 | 32.57157 | 23117 ft | 413 kts | 40° |
| 2026-05-07 14:00 | 32.98862 | 32.59538 | 23118 ft | 413 kts | 39° |
| 2026-05-07 14:00 | 33.00928 | 32.61927 | 23116 ft | 413 kts | 40° |
| 2026-05-07 14:00 | 33.02985 | 32.64310 | 23117 ft | 413 kts | 40° |
| 2026-05-07 14:00 | 33.05051 | 32.66701 | 23117 ft | 413 kts | 39° |
| 2026-05-07 14:01 | 33.07112 | 32.69083 | 23123 ft | 413 kts | 39° |
| 2026-05-07 14:01 | 33.09171 | 32.71468 | 23114 ft | 413 kts | 39° |
| 2026-05-07 14:01 | 33.11230 | 32.73859 | 23112 ft | 413 kts | 39° |
| 2026-05-07 14:01 | 33.13287 | 32.76247 | 23115 ft | 413 kts | 39° |
| 2026-05-07 14:02 | 33.15317 | 32.78604 | 23112 ft | 413 kts | 39° |
| 2026-05-07 14:02 | 33.17380 | 32.81002 | 23112 ft | 413 kts | 39° |
| 2026-05-07 14:02 | 33.19432 | 32.83393 | 23111 ft | 413 kts | 40° |
| 2026-05-07 14:02 | 33.21486 | 32.85793 | 23109 ft | 413 kts | 40° |
| 2026-05-07 14:03 | 33.23538 | 32.88191 | 23121 ft | 413 kts | 39° |
| 2026-05-07 14:03 | 33.25594 | 32.90592 | 23110 ft | 413 kts | 39° |
| 2026-05-07 14:03 | 33.27649 | 32.92989 | 23112 ft | 413 kts | 39° |
| 2026-05-07 14:03 | 33.29707 | 32.95390 | 23111 ft | 413 kts | 39° |
| 2026-05-07 14:04 | 33.31761 | 32.97785 | 23108 ft | 413 kts | 39° |
| 2026-05-07 14:04 | 33.33815 | 33.00185 | 23108 ft | 413 kts | 39° |
| 2026-05-07 14:04 | 33.35869 | 33.02587 | 23109 ft | 413 kts | 39° |
| 2026-05-07 14:04 | 33.37229 | 33.04181 | 23111 ft | 413 kts | 39° |
| 2026-05-07 14:05 | 33.39280 | 33.06589 | 23105 ft | 413 kts | 39° |
| 2026-05-07 14:05 | 33.41998 | 33.09780 | 23107 ft | 413 kts | 39° |
| 2026-05-07 14:05 | 33.44053 | 33.12187 | 23108 ft | 413 kts | 39° |
| 2026-05-07 14:05 | 33.46105 | 33.14594 | 23112 ft | 413 kts | 39° |
| 2026-05-07 14:06 | 33.47493 | 33.16226 | 23108 ft | 413 kts | 39° |
| 2026-05-07 14:06 | 33.50217 | 33.19424 | 23110 ft | 414 kts | 39° |
| 2026-05-07 14:06 | 33.52275 | 33.21840 | 23108 ft | 414 kts | 39° |
| 2026-05-07 14:06 | 33.53641 | 33.23446 | 23108 ft | 414 kts | 39° |
| 2026-05-07 14:07 | 33.55700 | 33.25869 | 23108 ft | 414 kts | 39° |
| 2026-05-07 14:07 | 33.57752 | 33.28291 | 23109 ft | 414 kts | 39° |
| 2026-05-07 14:07 | 33.59806 | 33.30720 | 23111 ft | 414 kts | 39° |
| 2026-05-07 14:07 | 33.61862 | 33.33151 | 23111 ft | 414 kts | 39° |
| 2026-05-07 14:08 | 33.63920 | 33.35577 | 23111 ft | 414 kts | 38° |
| 2026-05-07 14:08 | 33.66141 | 33.37732 | 23108 ft | 408 kts | 29° |
| 2026-05-07 14:08 | 33.68560 | 33.39379 | 23108 ft | 402 kts | 19° |
| 2026-05-07 14:08 | 33.71130 | 33.40692 | 23109 ft | 401 kts | 18° |
| 2026-05-07 14:09 | 33.73700 | 33.41992 | 23119 ft | 401 kts | 18° |
| 2026-05-07 14:09 | 33.76271 | 33.43298 | 23108 ft | 401 kts | 18° |
| 2026-05-07 14:09 | 33.78844 | 33.44610 | 23109 ft | 401 kts | 18° |
| 2026-05-07 14:09 | 33.81415 | 33.45929 | 23111 ft | 401 kts | 18° |
| 2026-05-07 14:10 | 33.83982 | 33.47249 | 23109 ft | 401 kts | 18° |
| 2026-05-07 14:10 | 33.86549 | 33.48571 | 23109 ft | 401 kts | 18° |
| 2026-05-07 14:10 | 33.89117 | 33.49891 | 23109 ft | 401 kts | 18° |
| 2026-05-07 14:10 | 33.91686 | 33.51206 | 23109 ft | 401 kts | 18° |
| 2026-05-07 14:11 | 33.94259 | 33.52521 | 23097 ft | 401 kts | 18° |
| 2026-05-07 14:11 | 33.96819 | 33.53827 | 22837 ft | 399 kts | 18° |
| 2026-05-07 14:11 | 33.99366 | 33.55127 | 22574 ft | 397 kts | 18° |
| 2026-05-07 14:11 | 34.01868 | 33.56407 | 22252 ft | 392 kts | 18° |
| 2026-05-07 14:12 | 34.04364 | 33.57690 | 21755 ft | 389 kts | 18° |
| 2026-05-07 14:12 | 34.06849 | 33.58972 | 21248 ft | 386 kts | 18° |
| 2026-05-07 14:12 | 34.09311 | 33.60245 | 20758 ft | 383 kts | 18° |
| 2026-05-07 14:12 | 34.11755 | 33.61505 | 20253 ft | 380 kts | 19° |
| 2026-05-07 14:13 | 34.14182 | 33.62756 | 19736 ft | 378 kts | 19° |
| 2026-05-07 14:13 | 34.16594 | 33.63997 | 19203 ft | 376 kts | 19° |
| 2026-05-07 14:13 | 34.18993 | 33.65229 | 18678 ft | 374 kts | 19° |
| 2026-05-07 14:13 | 34.21381 | 33.66457 | 18084 ft | 372 kts | 19° |
| 2026-05-07 14:14 | 34.23754 | 33.67682 | 17522 ft | 369 kts | 19° |
| 2026-05-07 14:14 | 34.26100 | 33.68896 | 16963 ft | 365 kts | 20° |
| 2026-05-07 14:14 | 34.28425 | 33.70097 | 16405 ft | 362 kts | 20° |
| 2026-05-07 14:14 | 34.30711 | 33.71276 | 15863 ft | 360 kts | 20° |
| 2026-05-07 14:15 | 34.33008 | 33.72461 | 15296 ft | 357 kts | 20° |
| 2026-05-07 14:15 | 34.35310 | 33.73564 | 14749 ft | 353 kts | 13° |
| 2026-05-07 14:15 | 34.37720 | 33.73815 | 14212 ft | 347 kts | 352° |
| 2026-05-07 14:15 | 34.40083 | 33.73287 | 13656 ft | 344 kts | 347° |
| 2026-05-07 14:16 | 34.42417 | 33.72661 | 13046 ft | 342 kts | 346° |
| 2026-05-07 14:16 | 34.44734 | 33.72023 | 12469 ft | 341 kts | 346° |
| 2026-05-07 14:16 | 34.47035 | 33.71383 | 11920 ft | 338 kts | 346° |
| 2026-05-07 14:16 | 34.49323 | 33.70739 | 11452 ft | 336 kts | 346° |
| 2026-05-07 14:17 | 34.51575 | 33.70100 | 10985 ft | 326 kts | 346° |
| 2026-05-07 14:17 | 34.53721 | 33.69474 | 10533 ft | 309 kts | 347° |
| 2026-05-07 14:17 | 34.55766 | 33.68860 | 10096 ft | 296 kts | 346° |
| 2026-05-07 14:17 | 34.57726 | 33.68259 | 9591 ft | 285 kts | 347° |
| 2026-05-07 14:18 | 34.59611 | 33.67667 | 9103 ft | 275 kts | 346° |
| 2026-05-07 14:18 | 34.61435 | 33.67092 | 8616 ft | 267 kts | 346° |
| 2026-05-07 14:18 | 34.63215 | 33.66535 | 8135 ft | 261 kts | 346° |
| 2026-05-07 14:18 | 34.64961 | 33.65995 | 7670 ft | 257 kts | 346° |
| 2026-05-07 14:19 | 34.66686 | 33.65463 | 7200 ft | 254 kts | 346° |
| 2026-05-07 14:19 | 34.68380 | 33.64940 | 6739 ft | 248 kts | 346° |
| 2026-05-07 14:19 | 34.70014 | 33.64440 | 6277 ft | 242 kts | 346° |
| 2026-05-07 14:19 | 34.71638 | 33.63949 | 5797 ft | 237 kts | 346° |
| 2026-05-07 14:20 | 34.73227 | 33.63468 | 5313 ft | 232 kts | 346° |
| 2026-05-07 14:20 | 34.74779 | 33.62995 | 4844 ft | 228 kts | 346° |
| 2026-05-07 14:20 | 34.76306 | 33.62528 | 4347 ft | 224 kts | 347° |
| 2026-05-07 14:20 | 34.77804 | 33.62066 | 3875 ft | 220 kts | 346° |
| 2026-05-07 14:21 | 34.79299 | 33.61800 | 3404 ft | 215 kts | 5° |
| 2026-05-07 14:21 | 34.80676 | 33.62383 | 2922 ft | 211 kts | 37° |
| 2026-05-07 14:21 | 34.81738 | 33.63606 | 2463 ft | 210 kts | 46° |
| 2026-05-07 14:21 | 34.82703 | 33.64908 | 2034 ft | 208 kts | 47° |
| 2026-05-07 14:22 | 34.83650 | 33.66199 | 1780 ft | 202 kts | 48° |
| 2026-05-07 14:22 | 34.84578 | 33.67435 | 1664 ft | 193 kts | 48° |
| 2026-05-07 14:22 | 34.85447 | 33.68578 | 1695 ft | 177 kts | 47° |
| 2026-05-07 14:22 | 34.86250 | 33.69660 | 1656 ft | 170 kts | 47° |
| 2026-05-07 14:23 | 34.87027 | 33.70725 | 1665 ft | 167 kts | 48° |
| 2026-05-07 14:23 | 34.87796 | 33.71783 | 1669 ft | 166 kts | 48° |
| 2026-05-07 14:23 | 34.88526 | 33.72785 | 1656 ft | 155 kts | 47° |
| 2026-05-07 14:23 | 34.89251 | 33.73689 | 1651 ft | 144 kts | 36° |
| 2026-05-07 14:24 | 34.90166 | 33.74139 | 1561 ft | 142 kts | 4° |
| 2026-05-07 14:24 | 34.91106 | 33.73916 | 1490 ft | 138 kts | 329° |
| 2026-05-07 14:24 | 34.91791 | 33.73123 | 1425 ft | 136 kts | 304° |
| 2026-05-07 14:24 | 34.92248 | 33.72122 | 1368 ft | 135 kts | 292° |
| 2026-05-07 14:25 | 34.92512 | 33.71021 | 1287 ft | 136 kts | 278° |
| 2026-05-07 14:25 | 34.92560 | 33.69873 | 1225 ft | 136 kts | 265° |
| 2026-05-07 14:25 | 34.92352 | 33.68753 | 1119 ft | 139 kts | 246° |
| 2026-05-07 14:25 | 34.91778 | 33.67783 | 1000 ft | 148 kts | 223° |
| 2026-05-07 14:26 | 34.91048 | 33.66912 | 850 ft | 145 kts | 222° |
| 2026-05-07 14:26 | 34.90357 | 33.66036 | 624 ft | 139 kts | 226° |
| 2026-05-07 14:26 | 34.89731 | 33.65245 | 431 ft | 125 kts | 222° |
| 2026-05-07 14:26 | 34.89097 | 33.64501 | 305 ft | 127 kts | 225° |
| 2026-05-07 14:27 | 34.88484 | 33.63750 | 124 ft | 125 kts | 224° |
| 2026-05-07 14:27 | 34.87889 | 33.63023 | 25 ft | 110 kts | 224° |
| 2026-05-07 14:27 | 34.87457 | 33.62495 | 16 ft | 64 kts | 225° |
| 2026-05-07 14:27 | 34.87268 | 33.62262 | 18 ft | 14 kts | 225° |
| 2026-05-07 14:28 | 34.87174 | 33.62145 | 23 ft | 25 kts | 225° |
| 2026-05-07 14:28 | 34.87053 | 33.61993 | 21 ft | 26 kts | 231° |
| 2026-05-07 14:28 | 34.86973 | 33.61799 | 23 ft | 26 kts | 255° |
| 2026-05-07 14:28 | 34.86927 | 33.61591 | 19 ft | 21 kts | 255° |
| 2026-05-07 14:29 | 34.86902 | 33.61475 | 21 ft | 13 kts | 253° |
| 2026-05-07 14:29 | 34.86838 | 33.61376 | 18 ft | 16 kts | 224° |
| 2026-05-07 14:29 | 34.86749 | 33.61268 | 18 ft | 20 kts | 225° |
| 2026-05-07 14:29 | 34.86672 | 33.61175 | 21 ft | 15 kts | 225° |
| 2026-05-07 14:30 | 34.86636 | 33.61086 | 21 ft | 10 kts | 295° |
| 2026-05-07 14:30 | 34.86682 | 33.61058 | 21 ft | 4 kts | 4° |
| 2026-05-07 14:30 | 34.86718 | 33.61062 | 21 ft | 6 kts | 6° |
| 2026-05-07 14:30 | 34.86775 | 33.61068 | 21 ft | 8 kts | 5° |
| 2026-05-07 14:31 | 34.86796 | 33.61070 | 22 ft | 2 kts | 5° |
| 2026-05-07 14:31 | 34.86800 | 33.61071 | 22 ft | 0 kts | 5° |